Apj Shirin — 3EVS6 — position and weather

sailwx.info

Track history (hours):
 
Tides and Currents Weather Stations Pressure Air Temp Water Temp Dewpoint Dewpoint Depression Visibility Wind Speed Wind Dir Waves Ship Positions

Apj Shirin

Last reported at 2015-Mar-01 22:12 UTC. Time now 2015-Mar-02 01:01 UTC.
Position N 36°40' W 008°56'.

Length 189 m; draft 10.2 m.

Type: Cargo ship. MMSI: 373223000.

Date/timePositionNaut miles runAvg speedWind from/ knotsBaromVisibWave heightAir tempDewpointWater temp
2015-Mar-01 22:12N 36°40' W 008°56'812.4
2015-Mar-01 21:31N 36°38' W 008°46'16612.8
2015-Mar-01 08:33N 35°60' W 005°26'1111.0
2015-Mar-01 07:33N 36°04' W 005°13'20512.5
2015-Feb-28 15:15N 37°07' W 001°11'1013.6
2015-Feb-28 14:33N 37°13' W 001°02'1413.8
2015-Feb-28 13:33N 37°23' W 000°50'1413.7
2015-Feb-28 12:33N 37°32' W 000°37'1414.0
2015-Feb-28 11:33N 37°43' W 000°26'1414.1
2015-Feb-28 10:33N 37°55' W 000°17'14213.7
2015-Feb-28 00:10N 39°57' E 001°18'813.8
2015-Feb-27 23:33N 40°05' E 001°23'1313.4
2015-Feb-27 22:33N 40°16' E 001°31'1313.3
2015-Feb-27 21:33N 40°28' E 001°39'1413.7
2015-Feb-27 20:33N 40°41' E 001°47'1512.8
2015-Feb-27 19:22N 40°54' E 001°56'1012.7
2015-Feb-27 18:33N 41°04' E 002°02'30 1.4
2015-Feb-26 21:14N 41°07' E 002°41'6 8.0
2015-Feb-26 20:28N 41°05' E 002°49'1211.7
2015-Feb-26 19:28N 41°05' E 003°04'1312.6
2015-Feb-26 18:24N 41°08' E 003°22'1111.9
2015-Feb-26 17:31N 41°10' E 003°35'1511.2
2015-Feb-26 16:12N 41°09' E 003°55'911.9
2015-Feb-26 15:24N 41°09' E 004°07'241 7.3
2015-Feb-25 06:33N 38°30' E 008°03'19 3.7
2015-Feb-25 01:26N 38°21' E 008°25'  
Track history (hours):
 
Tides and Currents Weather Stations Pressure Air Temp Water Temp Dewpoint Dewpoint Depression Visibility Wind Speed Wind Dir Waves Ship Positions

Apj Shirin

Last reported at 2015-Mar-01 22:12 UTC. Time now 2015-Mar-02 01:01 UTC.
Position N 36°40' W 008°56'.

Length 189 m; draft 10.2 m.

Type: Cargo ship. MMSI: 373223000.

Date/timePositionNaut miles runAvg speedWind from/ knotsBaromVisibWave heightAir tempDewpointWater temp
2015-Mar-01 22:12N 36°40' W 008°56'812.4
2015-Mar-01 21:31N 36°38' W 008°46'16612.8
2015-Mar-01 08:33N 35°60' W 005°26'1111.0
2015-Mar-01 07:33N 36°04' W 005°13'20512.5
2015-Feb-28 15:15N 37°07' W 001°11'1013.6
2015-Feb-28 14:33N 37°13' W 001°02'1413.8
2015-Feb-28 13:33N 37°23' W 000°50'1413.7
2015-Feb-28 12:33N 37°32' W 000°37'1414.0
2015-Feb-28 11:33N 37°43' W 000°26'1414.1
2015-Feb-28 10:33N 37°55' W 000°17'14213.7
2015-Feb-28 00:10N 39°57' E 001°18'813.8
2015-Feb-27 23:33N 40°05' E 001°23'1313.4
2015-Feb-27 22:33N 40°16' E 001°31'1313.3
2015-Feb-27 21:33N 40°28' E 001°39'1413.7
2015-Feb-27 20:33N 40°41' E 001°47'1512.8
2015-Feb-27 19:22N 40°54' E 001°56'1012.7
2015-Feb-27 18:33N 41°04' E 002°02'30 1.4
2015-Feb-26 21:14N 41°07' E 002°41'6 8.0
2015-Feb-26 20:28N 41°05' E 002°49'1211.7
2015-Feb-26 19:28N 41°05' E 003°04'1312.6
2015-Feb-26 18:24N 41°08' E 003°22'1111.9
2015-Feb-26 17:31N 41°10' E 003°35'1511.2
2015-Feb-26 16:12N 41°09' E 003°55'911.9
2015-Feb-26 15:24N 41°09' E 004°07'241 7.3
2015-Feb-25 06:33N 38°30' E 008°03'19 3.7
2015-Feb-25 01:26N 38°21' E 008°25'  

Dump ship's entire track history